Weather reports worldwide

Advertisment
Latacunga, Ecuador (84123): temperature & dewpoint: 17.01.2019 18:00:00 - 23.01.2019 18:00:00 (ECT)Latacunga, Ecuador (84123): wind speed: 17.01.2019 18:00:00 - 23.01.2019 18:00:00 (ECT)Latacunga, Ecuador (84123): wind direction: 17.01.2019 18:00:00 - 23.01.2019 18:00:00 (ECT)Latacunga, Ecuador (84123): visibility: 17.01.2019 18:00:00 - 23.01.2019 18:00:00 (ECT)Latacunga, Ecuador (84123): precipitation: 17.01.2019 18:00:00 - 23.01.2019 18:00:00 (ECT)
Date & Time tt [°C] td [°C] ff [km/h] ff [kn] dd vv [km] rr [mm]
23.01.2019 18:00:00 18,0 11,0 35 19 S 10 -
23.01.2019 17:00:00 19,0 10,0 21 11 SSW 10 -
23.01.2019 16:00:00 19,8 10,1 44 24 S 10 -
23.01.2019 15:00:00 21,0 12,0 31 17 S 10 -
23.01.2019 14:00:00 20,0 8,0 37 20 S 10 -
23.01.2019 13:00:00 19,4 9,6 34 18 S 10 0,0
23.01.2019 12:00:00 17,0 10,0 34 18 S 10 -
23.01.2019 11:00:00 18,0 10,0 34 18 S 10 -
23.01.2019 10:00:00 16,1 10,2 34 18 S 10 -
23.01.2019 09:00:00 14,0 10,0 29 16 S 10 -
23.01.2019 08:00:00 12,0 10,0 24 13 S 10 -
23.01.2019 07:00:00 10,7 9,8 15 8 S 10 0,0
23.01.2019 06:00:00 11,0 10,0 18 10 S 10 -
23.01.2019 05:00:00 11,0 10,0 18 10 S 10 -
23.01.2019 04:00:00 11,0 10,0 21 11 S 10 -
23.01.2019 03:00:00 11,0 10,0 24 13 S 10 -
23.01.2019 02:00:00 12,0 10,0 26 14 S 10 -
23.01.2019 01:00:00 12,0 10,0 29 16 S 10 -
23.01.2019 00:00:00 12,0 10,0 24 13 S 10 -
22.01.2019 23:00:00 12,0 10,0 22 12 S 10 -
22.01.2019 22:00:00 12,0 10,0 24 13 S 10 -
22.01.2019 21:00:00 12,0 10,0 26 14 S 10 -
22.01.2019 20:00:00 13,0 10,0 28 15 S 10 -
22.01.2019 19:00:00 13,4 9,5 28 15 S 10 0,0
22.01.2019 18:00:00 16,0 10,0 31 17 S 10 -
22.01.2019 17:00:00 18,0 10,0 37 20 S 10 -
22.01.2019 16:00:00 19,8 10,0 34 18 S 10 -
22.01.2019 15:00:00 20,0 11,0 31 17 SSE 10 -
22.01.2019 14:00:00 20,0 11,0 34 18 S 10 -
22.01.2019 13:00:00 17,6 10,0 34 18 S 10 0,0
22.01.2019 12:00:00 19,0 11,0 31 17 S 10 -
22.01.2019 11:00:00 17,0 10,0 34 18 S 10 -
22.01.2019 10:00:00 14,6 9,6 31 17 S 10 -
22.01.2019 09:00:00 15,0 11,0 29 16 S 10 -
22.01.2019 08:00:00 12,0 10,0 28 15 S 10 -
22.01.2019 07:00:00 10,9 10,0 21 11 S 10 0,0
22.01.2019 06:00:00 11,0 10,0 9 5 SSW 10 -
22.01.2019 05:00:00 11,0 10,0 8 4 SSW 10 -
22.01.2019 04:00:00 11,0 10,0 9 5 S 10 -
22.01.2019 03:00:00 10,0 10,0 8 4 SSW 10 -
22.01.2019 02:00:00 11,0 10,0 9 5 S 10 -
22.01.2019 01:00:00 11,0 10,0 11 6 SSW 10 -
22.01.2019 00:00:00 12,0 10,0 15 8 S 10 -
21.01.2019 23:00:00 12,0 10,0 18 10 S 10 -
21.01.2019 22:00:00 12,0 10,0 18 10 S 10 -
21.01.2019 21:00:00 13,0 9,0 18 10 S 10 -
21.01.2019 20:00:00 13,0 9,0 18 10 S 10 -
21.01.2019 19:00:00 14,2 9,0 24 13 SSE 10 0,0
21.01.2019 18:00:00 16,0 10,0 31 17 S 10 -
21.01.2019 17:00:00 19,0 9,0 35 19 S 10 -
21.01.2019 16:00:00 18,3 9,4 35 19 S 10 -
21.01.2019 15:00:00 20,0 9,0 28 15 S 10 -
21.01.2019 14:00:00 19,0 9,0 28 15 S 10 -
21.01.2019 13:00:00 18,8 9,6 29 16 S 10 0,0
21.01.2019 12:00:00 19,0 10,0 31 17 S 10 -
21.01.2019 11:00:00 17,0 11,0 31 17 S 10 -
21.01.2019 10:00:00 14,0 11,0 26 14 S 10 -
21.01.2019 09:00:00 12,0 10,0 26 14 S 10 -
21.01.2019 08:00:00 12,0 10,0 16 9 S 10 -
21.01.2019 07:00:00 10,7 9,6 9 5 S 10 0,0
21.01.2019 06:00:00 11,0 10,0 8 4 SSW 10 -
21.01.2019 05:00:00 11,0 10,0 13 7 SSW 10 -
21.01.2019 04:00:00 - - - - - - -
21.01.2019 03:00:00 11,0 10,0 9 5 SSW 10 -
21.01.2019 02:00:00 11,0 10,0 15 8 S 10 -
21.01.2019 01:00:00 11,0 10,0 16 9 S 10 -
21.01.2019 00:00:00 11,0 10,0 9 5 SSW 10 -
20.01.2019 23:00:00 11,0 10,0 8 4 SSW 10 -
20.01.2019 22:00:00 11,0 10,0 22 12 S 10 -
20.01.2019 21:00:00 12,0 9,0 16 9 SSE 10 -
20.01.2019 20:00:00 12,0 10,0 21 11 S 10 -
20.01.2019 19:00:00 12,3 9,5 22 12 S 10 -
20.01.2019 18:00:00 14,0 10,0 26 14 S 10 -
20.01.2019 17:00:00 15,0 10,0 31 17 S 10 -
20.01.2019 16:00:00 15,6 9,7 31 17 S 10 -
20.01.2019 15:00:00 16,0 10,0 28 15 S 10 -
20.01.2019 14:00:00 15,0 10,0 35 19 S 10 -
20.01.2019 13:00:00 16,0 10,0 34 18 S 10 -
20.01.2019 12:00:00 16,0 11,0 31 17 S 10 -
20.01.2019 11:00:00 14,0 10,0 35 19 S 10 -
20.01.2019 10:00:00 14,0 10,0 31 17 S 10 -
20.01.2019 09:00:00 12,0 9,0 29 16 SSE 10 -
20.01.2019 08:00:00 11,0 9,0 26 14 S 10 -
20.01.2019 07:00:00 10,0 8,0 22 12 SSE 10 -
20.01.2019 06:00:00 10,0 8,0 22 12 S 10 -
20.01.2019 05:00:00 10,0 8,0 26 14 S 10 -
20.01.2019 04:00:00 10,0 9,0 11 6 S 10 -
20.01.2019 03:00:00 11,0 9,0 21 11 S 10 -
20.01.2019 02:00:00 11,0 10,0 18 10 S 10 -
20.01.2019 01:00:00 11,0 10,0 22 12 S 10 -
20.01.2019 00:00:00 11,0 10,0 22 12 S 10 -
19.01.2019 23:00:00 12,0 10,0 18 10 S 10 -
19.01.2019 22:00:00 12,0 10,0 15 8 S 10 -
19.01.2019 21:00:00 12,0 10,0 21 11 S 10 -
19.01.2019 20:00:00 13,0 10,0 24 13 S 10 -
19.01.2019 19:00:00 12,3 9,5 21 11 SSE 10 0,0
19.01.2019 18:00:00 14,0 9,0 24 13 S 10 -
19.01.2019 17:00:00 16,0 10,0 29 16 S 10 -
19.01.2019 16:00:00 16,2 10,9 28 15 S 10 -
19.01.2019 15:00:00 18,0 10,0 31 17 S 10 -
19.01.2019 14:00:00 18,0 11,0 39 21 S 10 -
19.01.2019 13:00:00 17,3 10,9 34 18 S 10 0,0
19.01.2019 12:00:00 16,0 10,0 34 18 S 10 -
19.01.2019 11:00:00 15,0 1,0 28 15 S 10 -
19.01.2019 10:00:00 14,0 10,0 26 14 S 10 -
19.01.2019 09:00:00 13,0 10,0 24 13 S 10 -
19.01.2019 08:00:00 11,0 10,0 13 7 S 10 -
19.01.2019 07:00:00 10,2 9,3 13 7 S 10 -
19.01.2019 06:00:00 10,0 9,0 9 5 SSW 10 -
19.01.2019 05:00:00 10,0 10,0 8 4 S 10 -
19.01.2019 04:00:00 10,0 9,0 8 4 SSW 10 -
19.01.2019 03:00:00 11,0 9,0 9 5 SSW 10 -
19.01.2019 02:00:00 11,0 9,0 9 5 SSW 10 -
19.01.2019 01:00:00 11,0 9,0 11 6 SSW 10 -
19.01.2019 00:00:00 11,0 9,0 11 6 S 10 -
18.01.2019 23:00:00 12,0 9,0 28 15 S 10 -
18.01.2019 22:00:00 12,0 9,0 26 14 S 10 -
18.01.2019 21:00:00 12,0 10,0 24 13 S 10 -
18.01.2019 20:00:00 12,0 9,0 18 10 S 10 -
18.01.2019 19:00:00 13,0 9,3 26 14 S 10 0,0
18.01.2019 18:00:00 15,0 9,0 35 19 S 10 -
18.01.2019 17:00:00 16,0 9,0 29 16 S 10 -
18.01.2019 16:00:00 16,0 9,0 31 17 SSE 10 -
18.01.2019 15:00:00 16,0 9,0 29 16 S 10 -
18.01.2019 14:00:00 17,0 10,0 35 19 S 10 -
18.01.2019 13:00:00 15,9 9,1 34 18 S 10 0,0
18.01.2019 12:00:00 16,0 10,0 31 17 S 10 -
18.01.2019 11:00:00 15,0 9,0 31 17 S 10 -
18.01.2019 10:00:00 15,4 10,4 31 17 S 10 -
18.01.2019 09:00:00 13,0 10,0 24 13 S 10 -
18.01.2019 08:00:00 11,0 10,0 16 9 S 10 -
18.01.2019 07:00:00 10,2 9,3 15 8 SSW 10 0,0
18.01.2019 06:00:00 10,0 9,0 13 7 S 10 -
18.01.2019 05:00:00 10,0 9,0 18 10 S 10 -
18.01.2019 04:00:00 10,0 9,0 24 13 S 10 -
18.01.2019 03:00:00 11,0 9,0 21 11 S 10 -
18.01.2019 02:00:00 11,0 9,0 18 10 S 10 -
18.01.2019 01:00:00 11,0 9,0 28 15 S 10 -
18.01.2019 00:00:00 11,0 9,0 16 9 S 10 -
17.01.2019 23:00:00 11,0 9,0 18 10 S 10 -
17.01.2019 22:00:00 11,0 9,0 21 11 S 10 -
17.01.2019 21:00:00 11,0 9,0 11 6 SW 10 -
17.01.2019 20:00:00 10,0 9,0 18 10 S 10 -
17.01.2019 19:00:00 11,1 9,2 18 10 SSW 10 0,0
17.01.2019 18:00:00 13,0 9,0 31 17 S 10 -

tt = temperature
td = dewpoint
ff = wind speed
dd = wind direction
vv = visibility
rr = precipitation

Next stations